sensor_id;sensor_type;location;lat;lon;timestamp;temperature;humidity
20722;DHT22;10522;52.198;9.890;2022-10-19T00:00:17;10.20;99.90
20722;DHT22;10522;52.198;9.890;2022-10-19T00:02:43;10.10;99.90
20722;DHT22;10522;52.198;9.890;2022-10-19T00:05:09;10.00;99.90
20722;DHT22;10522;52.198;9.890;2022-10-19T00:07:34;9.90;99.90
20722;DHT22;10522;52.198;9.890;2022-10-19T00:10:00;9.70;99.90
20722;DHT22;10522;52.198;9.890;2022-10-19T00:12:25;9.70;99.90
20722;DHT22;10522;52.198;9.890;2022-10-19T00:14:51;9.70;99.90
20722;DHT22;10522;52.198;9.890;2022-10-19T00:17:17;9.60;99.90
20722;DHT22;10522;52.198;9.890;2022-10-19T00:19:42;9.60;99.90
20722;DHT22;10522;52.198;9.890;2022-10-19T00:22:08;9.50;99.90
20722;DHT22;10522;52.198;9.890;2022-10-19T00:24:34;9.40;99.90
20722;DHT22;10522;52.198;9.890;2022-10-19T00:26:59;9.40;99.90
20722;DHT22;10522;52.198;9.890;2022-10-19T00:29:25;9.50;99.90
20722;DHT22;10522;52.198;9.890;2022-10-19T00:31:51;9.40;99.90
20722;DHT22;10522;52.198;9.890;2022-10-19T00:34:17;9.40;99.90
20722;DHT22;10522;52.198;9.890;2022-10-19T00:36:42;9.40;99.90
20722;DHT22;10522;52.198;9.890;2022-10-19T00:39:13;9.40;99.90
20722;DHT22;10522;52.198;9.890;2022-10-19T00:41:40;9.40;99.90
20722;DHT22;10522;52.198;9.890;2022-10-19T00:47:04;9.30;99.90
20722;DHT22;10522;52.198;9.890;2022-10-19T00:49:34;9.20;99.90
20722;DHT22;10522;52.198;9.890;2022-10-19T00:52:09;9.20;99.90
20722;DHT22;10522;52.198;9.890;2022-10-19T00:54:37;9.20;99.90
20722;DHT22;10522;52.198;9.890;2022-10-19T00:57:04;9.10;99.90
20722;DHT22;10522;52.198;9.890;2022-10-19T00:59:31;9.10;99.90
20722;DHT22;10522;52.198;9.890;2022-10-19T01:01:57;9.00;99.90
20722;DHT22;10522;52.198;9.890;2022-10-19T01:04:25;8.90;99.90
20722;DHT22;10522;52.198;9.890;2022-10-19T01:06:52;8.90;99.90
20722;DHT22;10522;52.198;9.890;2022-10-19T01:09:18;8.90;99.90
20722;DHT22;10522;52.198;9.890;2022-10-19T01:14:46;8.80;99.90
20722;DHT22;10522;52.198;9.890;2022-10-19T01:17:22;9.00;99.90
20722;DHT22;10522;52.198;9.890;2022-10-19T01:23:19;9.50;99.90
20722;DHT22;10522;52.198;9.890;2022-10-19T01:26:09;9.70;99.90
20722;DHT22;10522;52.198;9.890;2022-10-19T01:28:49;9.70;99.90
20722;DHT22;10522;52.198;9.890;2022-10-19T01:39:57;10.00;99.90
20722;DHT22;10522;52.198;9.890;2022-10-19T01:42:31;10.00;99.90
20722;DHT22;10522;52.198;9.890;2022-10-19T01:47:50;10.10;99.90
20722;DHT22;10522;52.198;9.890;2022-10-19T01:50:30;10.10;99.90
20722;DHT22;10522;52.198;9.890;2022-10-19T01:52:57;10.10;99.90
20722;DHT22;10522;52.198;9.890;2022-10-19T01:55:25;10.10;99.90
20722;DHT22;10522;52.198;9.890;2022-10-19T01:57:57;10.10;99.90
20722;DHT22;10522;52.198;9.890;2022-10-19T02:00:25;10.10;99.90
20722;DHT22;10522;52.198;9.890;2022-10-19T02:02:53;10.10;99.90
20722;DHT22;10522;52.198;9.890;2022-10-19T02:05:22;10.20;99.90
20722;DHT22;10522;52.198;9.890;2022-10-19T02:07:53;10.20;99.90
20722;DHT22;10522;52.198;9.890;2022-10-19T02:10:20;10.20;99.90
20722;DHT22;10522;52.198;9.890;2022-10-19T02:12:47;10.20;99.90
20722;DHT22;10522;52.198;9.890;2022-10-19T02:15:17;10.30;99.90
20722;DHT22;10522;52.198;9.890;2022-10-19T02:17:50;10.20;99.90
20722;DHT22;10522;52.198;9.890;2022-10-19T02:20:17;10.30;99.90
20722;DHT22;10522;52.198;9.890;2022-10-19T02:22:43;10.20;99.90
20722;DHT22;10522;52.198;9.890;2022-10-19T02:25:10;10.20;99.90
20722;DHT22;10522;52.198;9.890;2022-10-19T02:27:38;10.20;99.90
20722;DHT22;10522;52.198;9.890;2022-10-19T02:30:09;10.10;99.90
20722;DHT22;10522;52.198;9.890;2022-10-19T02:32:35;10.10;99.90
20722;DHT22;10522;52.198;9.890;2022-10-19T02:35:01;10.10;99.90
20722;DHT22;10522;52.198;9.890;2022-10-19T02:37:27;10.00;99.90
20722;DHT22;10522;52.198;9.890;2022-10-19T02:39:53;10.00;99.90
20722;DHT22;10522;52.198;9.890;2022-10-19T02:42:27;9.90;99.90
20722;DHT22;10522;52.198;9.890;2022-10-19T02:48:05;9.90;99.90
20722;DHT22;10522;52.198;9.890;2022-10-19T02:50:32;9.80;99.90
20722;DHT22;10522;52.198;9.890;2022-10-19T02:52:58;9.80;99.90
20722;DHT22;10522;52.198;9.890;2022-10-19T02:55:24;9.90;99.90
20722;DHT22;10522;52.198;9.890;2022-10-19T02:57:50;9.90;99.90
20722;DHT22;10522;52.198;9.890;2022-10-19T03:00:16;9.90;99.90
20722;DHT22;10522;52.198;9.890;2022-10-19T03:02:42;9.90;99.90
20722;DHT22;10522;52.198;9.890;2022-10-19T03:05:08;9.90;99.90
20722;DHT22;10522;52.198;9.890;2022-10-19T03:07:34;9.90;99.90
20722;DHT22;10522;52.198;9.890;2022-10-19T03:09:59;10.00;99.90
20722;DHT22;10522;52.198;9.890;2022-10-19T03:12:25;9.90;99.90
20722;DHT22;10522;52.198;9.890;2022-10-19T03:14:51;9.90;99.90
20722;DHT22;10522;52.198;9.890;2022-10-19T03:17:17;9.90;99.90
20722;DHT22;10522;52.198;9.890;2022-10-19T03:19:42;9.80;99.90
20722;DHT22;10522;52.198;9.890;2022-10-19T03:22:08;9.80;99.90
20722;DHT22;10522;52.198;9.890;2022-10-19T03:24:34;9.80;99.90
20722;DHT22;10522;52.198;9.890;2022-10-19T03:27:00;9.80;99.90
20722;DHT22;10522;52.198;9.890;2022-10-19T03:29:26;9.80;99.90
20722;DHT22;10522;52.198;9.890;2022-10-19T03:31:51;9.80;99.90
20722;DHT22;10522;52.198;9.890;2022-10-19T03:34:17;9.90;99.90
20722;DHT22;10522;52.198;9.890;2022-10-19T03:36:43;9.80;99.90
20722;DHT22;10522;52.198;9.890;2022-10-19T03:39:13;9.90;99.90
20722;DHT22;10522;52.198;9.890;2022-10-19T03:41:39;9.80;99.90
20722;DHT22;10522;52.198;9.890;2022-10-19T03:44:06;9.80;99.90
20722;DHT22;10522;52.198;9.890;2022-10-19T03:46:33;9.80;99.90
20722;DHT22;10522;52.198;9.890;2022-10-19T03:49:00;9.80;99.90
20722;DHT22;10522;52.198;9.890;2022-10-19T03:51:27;9.80;99.90
20722;DHT22;10522;52.198;9.890;2022-10-19T03:53:59;9.90;99.90
20722;DHT22;10522;52.198;9.890;2022-10-19T03:56:27;9.90;99.90
20722;DHT22;10522;52.198;9.890;2022-10-19T03:58:54;9.90;99.90
20722;DHT22;10522;52.198;9.890;2022-10-19T04:01:22;9.90;99.90
20722;DHT22;10522;52.198;9.890;2022-10-19T04:04:00;9.90;99.90
20722;DHT22;10522;52.198;9.890;2022-10-19T04:06:29;10.00;99.90
20722;DHT22;10522;52.198;9.890;2022-10-19T04:08:55;10.00;99.90
20722;DHT22;10522;52.198;9.890;2022-10-19T04:11:24;10.00;99.90
20722;DHT22;10522;52.198;9.890;2022-10-19T04:13:51;10.00;99.90
20722;DHT22;10522;52.198;9.890;2022-10-19T04:16:17;10.00;99.90
20722;DHT22;10522;52.198;9.890;2022-10-19T04:18:44;9.90;99.90
20722;DHT22;10522;52.198;9.890;2022-10-19T04:23:47;9.90;99.90
20722;DHT22;10522;52.198;9.890;2022-10-19T04:26:14;9.90;99.90
20722;DHT22;10522;52.198;9.890;2022-10-19T04:28:39;9.90;99.90
20722;DHT22;10522;52.198;9.890;2022-10-19T04:31:06;9.80;99.90
20722;DHT22;10522;52.198;9.890;2022-10-19T04:33:32;9.90;99.90
20722;DHT22;10522;52.198;9.890;2022-10-19T04:36:18;9.90;99.90
20722;DHT22;10522;52.198;9.890;2022-10-19T04:38:44;9.90;99.90
20722;DHT22;10522;52.198;9.890;2022-10-19T04:41:12;9.90;99.90
20722;DHT22;10522;52.198;9.890;2022-10-19T04:43:38;9.90;99.90
20722;DHT22;10522;52.198;9.890;2022-10-19T04:46:06;10.00;99.90
20722;DHT22;10522;52.198;9.890;2022-10-19T04:48:33;10.00;99.90
20722;DHT22;10522;52.198;9.890;2022-10-19T04:50:59;10.00;99.90
20722;DHT22;10522;52.198;9.890;2022-10-19T04:53:26;10.00;99.90
20722;DHT22;10522;52.198;9.890;2022-10-19T04:55:52;10.00;99.90
20722;DHT22;10522;52.198;9.890;2022-10-19T04:58:17;10.00;99.90
20722;DHT22;10522;52.198;9.890;2022-10-19T05:00:43;9.90;99.90
20722;DHT22;10522;52.198;9.890;2022-10-19T05:03:09;9.90;99.90
20722;DHT22;10522;52.198;9.890;2022-10-19T05:05:34;9.90;99.90
20722;DHT22;10522;52.198;9.890;2022-10-19T05:08:00;9.90;99.90
20722;DHT22;10522;52.198;9.890;2022-10-19T05:10:26;9.90;99.90
20722;DHT22;10522;52.198;9.890;2022-10-19T05:12:52;9.90;99.90
20722;DHT22;10522;52.198;9.890;2022-10-19T05:15:18;10.00;99.90
20722;DHT22;10522;52.198;9.890;2022-10-19T05:17:44;9.90;99.90
20722;DHT22;10522;52.198;9.890;2022-10-19T05:20:09;9.90;99.90
20722;DHT22;10522;52.198;9.890;2022-10-19T05:22:39;9.90;99.90
20722;DHT22;10522;52.198;9.890;2022-10-19T05:25:05;10.00;99.90
20722;DHT22;10522;52.198;9.890;2022-10-19T05:27:32;9.90;99.90
20722;DHT22;10522;52.198;9.890;2022-10-19T05:29:57;10.00;99.90
20722;DHT22;10522;52.198;9.890;2022-10-19T05:32:23;10.00;99.90
20722;DHT22;10522;52.198;9.890;2022-10-19T05:34:49;10.00;99.90
20722;DHT22;10522;52.198;9.890;2022-10-19T05:37:15;9.90;99.90
20722;DHT22;10522;52.198;9.890;2022-10-19T05:39:41;9.90;99.90
20722;DHT22;10522;52.198;9.890;2022-10-19T05:42:07;10.00;99.90
20722;DHT22;10522;52.198;9.890;2022-10-19T05:44:33;10.00;99.90
20722;DHT22;10522;52.198;9.890;2022-10-19T05:47:00;10.00;99.90
20722;DHT22;10522;52.198;9.890;2022-10-19T05:49:26;10.00;99.90
20722;DHT22;10522;52.198;9.890;2022-10-19T05:51:52;10.00;99.90
20722;DHT22;10522;52.198;9.890;2022-10-19T05:54:18;10.10;99.90
20722;DHT22;10522;52.198;9.890;2022-10-19T05:56:44;10.10;99.90
20722;DHT22;10522;52.198;9.890;2022-10-19T05:59:14;10.10;99.90
20722;DHT22;10522;52.198;9.890;2022-10-19T06:01:39;10.00;99.90
20722;DHT22;10522;52.198;9.890;2022-10-19T06:04:05;10.00;99.90
20722;DHT22;10522;52.198;9.890;2022-10-19T06:06:32;10.00;99.90
20722;DHT22;10522;52.198;9.890;2022-10-19T06:08:58;10.10;99.90
20722;DHT22;10522;52.198;9.890;2022-10-19T06:11:30;10.10;99.90
20722;DHT22;10522;52.198;9.890;2022-10-19T06:13:57;10.10;99.90
20722;DHT22;10522;52.198;9.890;2022-10-19T06:16:25;10.10;99.90
20722;DHT22;10522;52.198;9.890;2022-10-19T06:18:52;10.20;99.90
20722;DHT22;10522;52.198;9.890;2022-10-19T06:21:20;10.20;99.90
20722;DHT22;10522;52.198;9.890;2022-10-19T06:23:51;10.20;99.90
20722;DHT22;10522;52.198;9.890;2022-10-19T06:26:18;10.30;99.90
20722;DHT22;10522;52.198;9.890;2022-10-19T06:28:44;10.30;99.90
20722;DHT22;10522;52.198;9.890;2022-10-19T06:31:11;10.30;99.90
20722;DHT22;10522;52.198;9.890;2022-10-19T06:33:42;10.40;99.90
20722;DHT22;10522;52.198;9.890;2022-10-19T06:38:35;10.40;99.90
20722;DHT22;10522;52.198;9.890;2022-10-19T06:41:00;10.40;99.90
20722;DHT22;10522;52.198;9.890;2022-10-19T06:43:27;10.40;99.90
20722;DHT22;10522;52.198;9.890;2022-10-19T06:45:53;10.40;99.90
20722;DHT22;10522;52.198;9.890;2022-10-19T06:48:18;10.40;99.90
20722;DHT22;10522;52.198;9.890;2022-10-19T06:50:44;10.50;99.90
20722;DHT22;10522;52.198;9.890;2022-10-19T06:53:10;10.50;99.90
20722;DHT22;10522;52.198;9.890;2022-10-19T06:55:36;10.50;99.90
20722;DHT22;10522;52.198;9.890;2022-10-19T06:58:02;10.50;99.90
20722;DHT22;10522;52.198;9.890;2022-10-19T07:00:28;10.50;99.90
20722;DHT22;10522;52.198;9.890;2022-10-19T07:02:54;10.60;99.90
20722;DHT22;10522;52.198;9.890;2022-10-19T07:05:20;10.60;99.90
20722;DHT22;10522;52.198;9.890;2022-10-19T07:07:46;10.60;99.90
20722;DHT22;10522;52.198;9.890;2022-10-19T07:10:12;10.70;99.90
20722;DHT22;10522;52.198;9.890;2022-10-19T07:12:38;10.70;99.90
20722;DHT22;10522;52.198;9.890;2022-10-19T07:15:04;10.70;99.90
20722;DHT22;10522;52.198;9.890;2022-10-19T07:17:30;10.80;99.90
20722;DHT22;10522;52.198;9.890;2022-10-19T07:19:56;10.90;99.90
20722;DHT22;10522;52.198;9.890;2022-10-19T07:22:21;11.00;99.90
20722;DHT22;10522;52.198;9.890;2022-10-19T07:24:47;11.10;99.90
20722;DHT22;10522;52.198;9.890;2022-10-19T07:27:13;11.10;99.90
20722;DHT22;10522;52.198;9.890;2022-10-19T07:29:38;11.20;99.90
20722;DHT22;10522;52.198;9.890;2022-10-19T07:32:04;11.30;99.90
20722;DHT22;10522;52.198;9.890;2022-10-19T07:34:30;11.40;99.90
20722;DHT22;10522;52.198;9.890;2022-10-19T07:36:56;11.40;99.90
20722;DHT22;10522;52.198;9.890;2022-10-19T07:39:22;11.50;99.90
20722;DHT22;10522;52.198;9.890;2022-10-19T07:41:48;11.50;99.90
20722;DHT22;10522;52.198;9.890;2022-10-19T07:44:14;11.50;99.90
20722;DHT22;10522;52.198;9.890;2022-10-19T07:46:40;11.50;99.90
20722;DHT22;10522;52.198;9.890;2022-10-19T07:49:12;11.60;99.90
20722;DHT22;10522;52.198;9.890;2022-10-19T07:51:44;11.60;99.90
20722;DHT22;10522;52.198;9.890;2022-10-19T07:54:10;11.70;99.90
20722;DHT22;10522;52.198;9.890;2022-10-19T07:56:36;11.80;99.90
20722;DHT22;10522;52.198;9.890;2022-10-19T07:59:02;11.70;99.90
20722;DHT22;10522;52.198;9.890;2022-10-19T08:01:37;11.80;99.90
20722;DHT22;10522;52.198;9.890;2022-10-19T08:04:28;11.90;99.90
20722;DHT22;10522;52.198;9.890;2022-10-19T08:07:01;12.00;99.90
20722;DHT22;10522;52.198;9.890;2022-10-19T08:09:27;12.00;99.90
20722;DHT22;10522;52.198;9.890;2022-10-19T08:11:53;12.10;99.90
20722;DHT22;10522;52.198;9.890;2022-10-19T08:14:19;12.20;99.90
20722;DHT22;10522;52.198;9.890;2022-10-19T08:16:48;12.30;99.90
20722;DHT22;10522;52.198;9.890;2022-10-19T08:19:14;12.40;99.90
20722;DHT22;10522;52.198;9.890;2022-10-19T08:21:46;12.30;99.90
20722;DHT22;10522;52.198;9.890;2022-10-19T08:24:14;12.50;99.90
20722;DHT22;10522;52.198;9.890;2022-10-19T08:26:41;12.40;99.90
20722;DHT22;10522;52.198;9.890;2022-10-19T08:29:12;12.40;99.90
20722;DHT22;10522;52.198;9.890;2022-10-19T08:31:39;12.40;99.90
20722;DHT22;10522;52.198;9.890;2022-10-19T08:34:05;12.50;99.90
20722;DHT22;10522;52.198;9.890;2022-10-19T08:36:31;12.60;99.90
20722;DHT22;10522;52.198;9.890;2022-10-19T08:39:01;12.70;99.90
20722;DHT22;10522;52.198;9.890;2022-10-19T08:49:46;12.80;99.90
20722;DHT22;10522;52.198;9.890;2022-10-19T08:52:16;12.70;99.90
20722;DHT22;10522;52.198;9.890;2022-10-19T08:54:55;12.80;99.90
20722;DHT22;10522;52.198;9.890;2022-10-19T09:03:18;12.80;99.90
20722;DHT22;10522;52.198;9.890;2022-10-19T09:08:37;13.10;99.90
20722;DHT22;10522;52.198;9.890;2022-10-19T09:11:03;13.10;99.90
20722;DHT22;10522;52.198;9.890;2022-10-19T09:14:50;13.10;99.90
20722;DHT22;10522;52.198;9.890;2022-10-19T09:16:47;13.30;99.90
20722;DHT22;10522;52.198;9.890;2022-10-19T09:19:24;13.30;99.90
20722;DHT22;10522;52.198;9.890;2022-10-19T09:22:01;13.20;99.90
20722;DHT22;10522;52.198;9.890;2022-10-19T09:24:43;13.20;99.90
20722;DHT22;10522;52.198;9.890;2022-10-19T09:27:25;13.20;99.90
20722;DHT22;10522;52.198;9.890;2022-10-19T09:32:41;13.10;99.90
20722;DHT22;10522;52.198;9.890;2022-10-19T09:35:37;13.00;99.90
20722;DHT22;10522;52.198;9.890;2022-10-19T09:38:06;12.90;99.90
20722;DHT22;10522;52.198;9.890;2022-10-19T09:40:33;12.80;99.90
20722;DHT22;10522;52.198;9.890;2022-10-19T09:42:59;12.70;99.90
20722;DHT22;10522;52.198;9.890;2022-10-19T09:48:38;12.70;99.90
20722;DHT22;10522;52.198;9.890;2022-10-19T09:51:14;12.70;99.90
20722;DHT22;10522;52.198;9.890;2022-10-19T09:53:44;12.70;99.90
20722;DHT22;10522;52.198;9.890;2022-10-19T09:56:20;12.70;99.90
20722;DHT22;10522;52.198;9.890;2022-10-19T09:58:54;12.80;99.90
20722;DHT22;10522;52.198;9.890;2022-10-19T10:01:38;12.90;99.90
20722;DHT22;10522;52.198;9.890;2022-10-19T10:04:06;13.00;99.90
20722;DHT22;10522;52.198;9.890;2022-10-19T10:06:33;13.00;99.90
20722;DHT22;10522;52.198;9.890;2022-10-19T10:08:59;13.20;99.90
20722;DHT22;10522;52.198;9.890;2022-10-19T10:11:28;13.50;99.90
20722;DHT22;10522;52.198;9.890;2022-10-19T10:13:55;13.50;99.90
20722;DHT22;10522;52.198;9.890;2022-10-19T10:16:26;13.30;99.90
20722;DHT22;10522;52.198;9.890;2022-10-19T10:19:07;13.30;99.90
20722;DHT22;10522;52.198;9.890;2022-10-19T10:21:59;13.20;99.90
20722;DHT22;10522;52.198;9.890;2022-10-19T10:24:29;13.30;99.90
20722;DHT22;10522;52.198;9.890;2022-10-19T10:27:00;13.30;99.90
20722;DHT22;10522;52.198;9.890;2022-10-19T10:29:31;13.30;99.90
20722;DHT22;10522;52.198;9.890;2022-10-19T10:32:00;13.40;99.90
20722;DHT22;10522;52.198;9.890;2022-10-19T10:34:36;13.40;99.90
20722;DHT22;10522;52.198;9.890;2022-10-19T10:37:06;13.30;99.90
20722;DHT22;10522;52.198;9.890;2022-10-19T10:39:41;13.20;99.90
20722;DHT22;10522;52.198;9.890;2022-10-19T10:42:17;13.30;99.90
20722;DHT22;10522;52.198;9.890;2022-10-19T10:44:47;13.10;99.90
20722;DHT22;10522;52.198;9.890;2022-10-19T10:47:14;13.20;99.90
20722;DHT22;10522;52.198;9.890;2022-10-19T10:49:41;13.20;99.90
20722;DHT22;10522;52.198;9.890;2022-10-19T10:52:17;13.20;99.90
20722;DHT22;10522;52.198;9.890;2022-10-19T10:55:16;13.30;99.90
20722;DHT22;10522;52.198;9.890;2022-10-19T10:57:49;13.00;99.90
20722;DHT22;10522;52.198;9.890;2022-10-19T11:00:21;13.40;99.90
20722;DHT22;10522;52.198;9.890;2022-10-19T11:02:59;13.50;99.90
20722;DHT22;10522;52.198;9.890;2022-10-19T11:05:32;13.50;99.90
20722;DHT22;10522;52.198;9.890;2022-10-19T11:14:09;13.50;99.90
20722;DHT22;10522;52.198;9.890;2022-10-19T11:16:42;13.80;99.90
20722;DHT22;10522;52.198;9.890;2022-10-19T11:19:29;13.90;99.90
20722;DHT22;10522;52.198;9.890;2022-10-19T11:30:32;13.60;99.90
20722;DHT22;10522;52.198;9.890;2022-10-19T11:41:54;13.70;99.90
20722;DHT22;10522;52.198;9.890;2022-10-19T11:57:29;13.50;99.90
20722;DHT22;10522;52.198;9.890;2022-10-19T12:00:16;13.60;99.90
20722;DHT22;10522;52.198;9.890;2022-10-19T12:14:14;13.70;99.90
20722;DHT22;10522;52.198;9.890;2022-10-19T12:17:28;13.60;99.90
20722;DHT22;10522;52.198;9.890;2022-10-19T12:19:41;13.60;99.90
20722;DHT22;10522;52.198;9.890;2022-10-19T12:22:13;13.60;99.90
20722;DHT22;10522;52.198;9.890;2022-10-19T12:24:40;13.60;99.90
20722;DHT22;10522;52.198;9.890;2022-10-19T12:27:08;13.40;99.90
20722;DHT22;10522;52.198;9.890;2022-10-19T12:29:38;13.30;99.90
20722;DHT22;10522;52.198;9.890;2022-10-19T12:32:05;13.20;99.90
20722;DHT22;10522;52.198;9.890;2022-10-19T12:48:43;14.20;99.90
20722;DHT22;10522;52.198;9.890;2022-10-19T12:51:11;14.60;99.90
20722;DHT22;10522;52.198;9.890;2022-10-19T12:53:49;14.60;99.90
20722;DHT22;10522;52.198;9.890;2022-10-19T12:56:23;14.60;99.90
20722;DHT22;10522;52.198;9.890;2022-10-19T12:58:53;14.50;99.90
20722;DHT22;10522;52.198;9.890;2022-10-19T13:01:26;14.40;99.90
20722;DHT22;10522;52.198;9.890;2022-10-19T13:04:41;14.20;99.90
20722;DHT22;10522;52.198;9.890;2022-10-19T13:07:04;14.20;99.90
20722;DHT22;10522;52.198;9.890;2022-10-19T13:09:41;14.00;99.90
20722;DHT22;10522;52.198;9.890;2022-10-19T13:14:55;14.00;99.90
20722;DHT22;10522;52.198;9.890;2022-10-19T13:25:31;13.50;99.90
20722;DHT22;10522;52.198;9.890;2022-10-19T13:43:51;13.30;99.90
20722;DHT22;10522;52.198;9.890;2022-10-19T13:57:22;13.70;99.90
20722;DHT22;10522;52.198;9.890;2022-10-19T14:00:14;13.90;99.90
20722;DHT22;10522;52.198;9.890;2022-10-19T14:06:18;13.70;99.90
20722;DHT22;10522;52.198;9.890;2022-10-19T14:09:19;13.90;99.90
20722;DHT22;10522;52.198;9.890;2022-10-19T14:11:48;13.80;99.90
20722;DHT22;10522;52.198;9.890;2022-10-19T14:14:21;13.30;99.90
20722;DHT22;10522;52.198;9.890;2022-10-19T14:16:59;13.10;99.90
20722;DHT22;10522;52.198;9.890;2022-10-19T14:19:55;13.20;99.90
20722;DHT22;10522;52.198;9.890;2022-10-19T14:22:29;13.40;99.90
20722;DHT22;10522;52.198;9.890;2022-10-19T14:27:27;13.40;99.90
20722;DHT22;10522;52.198;9.890;2022-10-19T14:29:53;13.20;99.90
20722;DHT22;10522;52.198;9.890;2022-10-19T14:32:22;13.20;99.90
20722;DHT22;10522;52.198;9.890;2022-10-19T14:34:49;13.10;99.90
20722;DHT22;10522;52.198;9.890;2022-10-19T14:37:16;13.10;99.90
20722;DHT22;10522;52.198;9.890;2022-10-19T14:40:39;13.10;99.90
20722;DHT22;10522;52.198;9.890;2022-10-19T14:42:45;13.60;99.90
20722;DHT22;10522;52.198;9.890;2022-10-19T14:45:21;14.10;99.90
20722;DHT22;10522;52.198;9.890;2022-10-19T14:48:02;14.80;99.90
20722;DHT22;10522;52.198;9.890;2022-10-19T14:53:18;15.00;99.90
20722;DHT22;10522;52.198;9.890;2022-10-19T14:55:45;14.90;99.90
20722;DHT22;10522;52.198;9.890;2022-10-19T14:58:16;14.70;99.90
20722;DHT22;10522;52.198;9.890;2022-10-19T15:00:45;14.70;99.90
20722;DHT22;10522;52.198;9.890;2022-10-19T15:03:23;14.90;99.90
20722;DHT22;10522;52.198;9.890;2022-10-19T15:05:54;14.90;99.90
20722;DHT22;10522;52.198;9.890;2022-10-19T15:08:29;15.50;99.90
20722;DHT22;10522;52.198;9.890;2022-10-19T15:10:56;15.60;99.90
20722;DHT22;10522;52.198;9.890;2022-10-19T15:13:27;15.50;99.90
20722;DHT22;10522;52.198;9.890;2022-10-19T15:15:55;15.10;99.90
20722;DHT22;10522;52.198;9.890;2022-10-19T15:18:23;14.60;99.90
20722;DHT22;10522;52.198;9.890;2022-10-19T15:21:13;14.40;99.90
20722;DHT22;10522;52.198;9.890;2022-10-19T15:28:52;14.30;99.90
20722;DHT22;10522;52.198;9.890;2022-10-19T15:31:28;14.60;99.90
20722;DHT22;10522;52.198;9.890;2022-10-19T15:33:59;14.70;99.90
20722;DHT22;10522;52.198;9.890;2022-10-19T15:36:26;14.80;99.90
20722;DHT22;10522;52.198;9.890;2022-10-19T15:39:05;14.40;99.90
20722;DHT22;10522;52.198;9.890;2022-10-19T15:41:38;14.30;99.90
20722;DHT22;10522;52.198;9.890;2022-10-19T15:44:06;14.00;99.90
20722;DHT22;10522;52.198;9.890;2022-10-19T15:52:19;12.90;99.90
20722;DHT22;10522;52.198;9.890;2022-10-19T15:54:52;12.60;99.90
20722;DHT22;10522;52.198;9.890;2022-10-19T15:57:25;12.40;99.90
20722;DHT22;10522;52.198;9.890;2022-10-19T15:59:54;12.10;99.90
20722;DHT22;10522;52.198;9.890;2022-10-19T16:02:20;11.80;99.90
20722;DHT22;10522;52.198;9.890;2022-10-19T16:04:46;11.60;99.90
20722;DHT22;10522;52.198;9.890;2022-10-19T16:07:23;11.40;99.90
20722;DHT22;10522;52.198;9.890;2022-10-19T16:09:50;11.20;99.90
20722;DHT22;10522;52.198;9.890;2022-10-19T16:12:16;11.10;99.90
20722;DHT22;10522;52.198;9.890;2022-10-19T16:14:41;10.90;99.90
20722;DHT22;10522;52.198;9.890;2022-10-19T16:17:12;10.70;99.90
20722;DHT22;10522;52.198;9.890;2022-10-19T16:19:38;10.70;99.90
20722;DHT22;10522;52.198;9.890;2022-10-19T16:22:04;10.60;99.90
20722;DHT22;10522;52.198;9.890;2022-10-19T16:24:29;10.50;99.90
20722;DHT22;10522;52.198;9.890;2022-10-19T16:26:55;10.40;99.90
20722;DHT22;10522;52.198;9.890;2022-10-19T16:29:21;10.30;99.90
20722;DHT22;10522;52.198;9.890;2022-10-19T16:31:47;10.20;99.90
20722;DHT22;10522;52.198;9.890;2022-10-19T16:34:12;10.20;99.90
20722;DHT22;10522;52.198;9.890;2022-10-19T16:36:38;10.10;99.90
20722;DHT22;10522;52.198;9.890;2022-10-19T16:39:04;10.10;99.90
20722;DHT22;10522;52.198;9.890;2022-10-19T16:41:29;10.00;99.90
20722;DHT22;10522;52.198;9.890;2022-10-19T16:43:55;10.00;99.90
20722;DHT22;10522;52.198;9.890;2022-10-19T16:46:23;9.90;99.90
20722;DHT22;10522;52.198;9.890;2022-10-19T16:48:49;9.80;99.90
20722;DHT22;10522;52.198;9.890;2022-10-19T16:51:24;9.80;99.90
20722;DHT22;10522;52.198;9.890;2022-10-19T16:53:53;9.70;99.90
20722;DHT22;10522;52.198;9.890;2022-10-19T16:56:19;9.70;99.90
20722;DHT22;10522;52.198;9.890;2022-10-19T16:58:45;9.60;99.90
20722;DHT22;10522;52.198;9.890;2022-10-19T17:01:16;9.50;99.90
20722;DHT22;10522;52.198;9.890;2022-10-19T17:03:43;9.50;99.90
20722;DHT22;10522;52.198;9.890;2022-10-19T17:06:09;9.50;99.90
20722;DHT22;10522;52.198;9.890;2022-10-19T17:08:35;9.40;99.90
20722;DHT22;10522;52.198;9.890;2022-10-19T17:11:23;9.30;99.90
20722;DHT22;10522;52.198;9.890;2022-10-19T17:13:50;9.30;99.90
20722;DHT22;10522;52.198;9.890;2022-10-19T17:16:18;9.30;99.90
20722;DHT22;10522;52.198;9.890;2022-10-19T17:18:44;9.20;99.90
20722;DHT22;10522;52.198;9.890;2022-10-19T17:21:25;9.10;99.90
20722;DHT22;10522;52.198;9.890;2022-10-19T17:23:53;8.90;99.90
20722;DHT22;10522;52.198;9.890;2022-10-19T17:26:27;8.90;99.90
20722;DHT22;10522;52.198;9.890;2022-10-19T17:28:54;8.80;99.90
20722;DHT22;10522;52.198;9.890;2022-10-19T17:31:20;8.70;99.90
20722;DHT22;10522;52.198;9.890;2022-10-19T17:33:45;8.60;99.90
20722;DHT22;10522;52.198;9.890;2022-10-19T17:36:18;8.60;99.90
20722;DHT22;10522;52.198;9.890;2022-10-19T17:38:44;8.50;99.90
20722;DHT22;10522;52.198;9.890;2022-10-19T17:41:13;8.40;99.90
20722;DHT22;10522;52.198;9.890;2022-10-19T17:43:44;8.40;99.90
20722;DHT22;10522;52.198;9.890;2022-10-19T17:46:11;8.40;99.90
20722;DHT22;10522;52.198;9.890;2022-10-19T17:48:38;8.40;99.90
20722;DHT22;10522;52.198;9.890;2022-10-19T17:51:07;8.30;99.90
20722;DHT22;10522;52.198;9.890;2022-10-19T17:53:34;8.20;99.90
20722;DHT22;10522;52.198;9.890;2022-10-19T17:56:02;8.20;99.90
20722;DHT22;10522;52.198;9.890;2022-10-19T17:58:30;8.20;99.90
20722;DHT22;10522;52.198;9.890;2022-10-19T18:00:57;8.10;99.90
20722;DHT22;10522;52.198;9.890;2022-10-19T18:03:24;8.10;99.90
20722;DHT22;10522;52.198;9.890;2022-10-19T18:06:04;8.00;99.90
20722;DHT22;10522;52.198;9.890;2022-10-19T18:08:32;8.00;99.90
20722;DHT22;10522;52.198;9.890;2022-10-19T18:11:06;7.90;99.90
20722;DHT22;10522;52.198;9.890;2022-10-19T18:13:34;7.80;99.90
20722;DHT22;10522;52.198;9.890;2022-10-19T18:16:01;7.80;99.90
20722;DHT22;10522;52.198;9.890;2022-10-19T18:18:28;7.80;99.90
20722;DHT22;10522;52.198;9.890;2022-10-19T18:20:54;7.70;99.90
20722;DHT22;10522;52.198;9.890;2022-10-19T18:23:20;7.70;99.90
20722;DHT22;10522;52.198;9.890;2022-10-19T18:25:46;7.60;99.90
20722;DHT22;10522;52.198;9.890;2022-10-19T18:28:11;7.60;99.90
20722;DHT22;10522;52.198;9.890;2022-10-19T18:30:37;7.70;99.90
20722;DHT22;10522;52.198;9.890;2022-10-19T18:33:04;7.70;99.90
20722;DHT22;10522;52.198;9.890;2022-10-19T18:35:39;7.70;99.90
20722;DHT22;10522;52.198;9.890;2022-10-19T18:38:06;7.60;99.90
20722;DHT22;10522;52.198;9.890;2022-10-19T18:40:36;7.60;99.90